AAL1243 KFLL-KPHL
Flight info
| Callsign | AAL1243 |
|---|---|
| Flight time | N/A |
| Altitude | 35000 |
| Route | FEALX2 ETECK PELCN Y309 FLRDA IDOLS SKARP Q101 KALDA ZJAAY JIIMS4 |
| Aircraft | B738/M-SDE2E3FGHIRWXY/LB1 |
Departure
| Time | 2026-05-07 18:17 |
|---|---|
| Airport | Fort Lauderdale Hollywood International Airport (KFLL) |
Arrival
| Time | N/A |
|---|---|
| Airport | Philadelphia International Airport (KPHL) |
| Time | Latitude | Longitude | Altitude | Speed | Heading |
|---|---|---|---|---|---|
| 2026-05-07 17:38 | 26.07379 | -80.14638 | 20 ft | 0 kts | 213° |
| 2026-05-07 17:39 | 26.07379 | -80.14639 | 20 ft | 0 kts | 213° |
| 2026-05-07 17:40 | 26.07378 | -80.14639 | 20 ft | 0 kts | 213° |
| 2026-05-07 18:02 | 26.07384 | -80.14634 | 20 ft | 2 kts | 213° |
| 2026-05-07 18:03 | 26.07399 | -80.14624 | 20 ft | 3 kts | 213° |
| 2026-05-07 18:03 | 26.07416 | -80.14612 | 20 ft | 3 kts | 208° |
| 2026-05-07 18:03 | 26.07424 | -80.14608 | 20 ft | 0 kts | 202° |
| 2026-05-07 18:03 | 26.07425 | -80.14607 | 20 ft | 1 kts | 202° |
| 2026-05-07 18:04 | 26.07438 | -80.14601 | 20 ft | 3 kts | 211° |
| 2026-05-07 18:04 | 26.07453 | -80.14586 | 20 ft | 3 kts | 233° |
| 2026-05-07 18:04 | 26.07462 | -80.14566 | 20 ft | 3 kts | 254° |
| 2026-05-07 18:04 | 26.07464 | -80.14544 | 20 ft | 3 kts | 273° |
| 2026-05-07 18:05 | 26.07464 | -80.14539 | 20 ft | 0 kts | 276° |
| 2026-05-07 18:10 | 26.07468 | -80.14558 | 20 ft | 6 kts | 288° |
| 2026-05-07 18:10 | 26.07489 | -80.14621 | 20 ft | 11 kts | 285° |
| 2026-05-07 18:10 | 26.07498 | -80.14724 | 20 ft | 16 kts | 271° |
| 2026-05-07 18:10 | 26.07500 | -80.14860 | 20 ft | 17 kts | 271° |
| 2026-05-07 18:11 | 26.07501 | -80.14976 | 20 ft | 13 kts | 270° |
| 2026-05-07 18:11 | 26.07501 | -80.15066 | 20 ft | 11 kts | 269° |
| 2026-05-07 18:11 | 26.07500 | -80.15150 | 20 ft | 11 kts | 269° |
| 2026-05-07 18:11 | 26.07498 | -80.15247 | 20 ft | 14 kts | 271° |
| 2026-05-07 18:12 | 26.07500 | -80.15361 | 20 ft | 16 kts | 270° |
| 2026-05-07 18:12 | 26.07499 | -80.15491 | 20 ft | 18 kts | 270° |
| 2026-05-07 18:12 | 26.07500 | -80.15640 | 20 ft | 20 kts | 270° |
| 2026-05-07 18:12 | 26.07501 | -80.15792 | 20 ft | 16 kts | 271° |
| 2026-05-07 18:13 | 26.07504 | -80.15921 | 20 ft | 18 kts | 271° |
| 2026-05-07 18:13 | 26.07505 | -80.16067 | 20 ft | 20 kts | 271° |
| 2026-05-07 18:13 | 26.07506 | -80.16228 | 20 ft | 22 kts | 270° |
| 2026-05-07 18:13 | 26.07504 | -80.16387 | 20 ft | 19 kts | 269° |
| 2026-05-07 18:14 | 26.07504 | -80.16513 | 20 ft | 14 kts | 270° |
| 2026-05-07 18:14 | 26.07503 | -80.16604 | 20 ft | 10 kts | 272° |
| 2026-05-07 18:14 | 26.07528 | -80.16653 | 20 ft | 6 kts | 334° |
| 2026-05-07 18:14 | 26.07567 | -80.16660 | 20 ft | 6 kts | 355° |
| 2026-05-07 18:15 | 26.07592 | -80.16662 | 20 ft | 0 kts | 358° |
| 2026-05-07 18:15 | 26.07635 | -80.16662 | 20 ft | 10 kts | 359° |
| 2026-05-07 18:15 | 26.07695 | -80.16659 | 20 ft | 2 kts | 48° |
| 2026-05-07 18:16 | 26.07701 | -80.16614 | 20 ft | 14 kts | 84° |
| 2026-05-07 18:16 | 26.07704 | -80.16441 | 20 ft | 41 kts | 88° |
| 2026-05-07 18:16 | 26.07703 | -80.15841 | 20 ft | 111 kts | 90° |
| 2026-05-07 18:16 | 26.07697 | -80.14765 | 100 ft | 160 kts | 91° |
| 2026-05-07 18:17 | 26.07740 | -80.13509 | 801 ft | 163 kts | 89° |
| 2026-05-07 18:17 | 26.07769 | -80.12226 | 1570 ft | 170 kts | 90° |
| 2026-05-07 18:17 | 26.07800 | -80.10891 | 2139 ft | 179 kts | 90° |
| 2026-05-07 18:17 | 26.07808 | -80.09445 | 2521 ft | 196 kts | 91° |
| 2026-05-07 18:18 | 26.07815 | -80.07858 | 2843 ft | 216 kts | 90° |
| 2026-05-07 18:18 | 26.07819 | -80.06123 | 3194 ft | 233 kts | 91° |
| 2026-05-07 18:18 | 26.07825 | -80.04260 | 3734 ft | 250 kts | 91° |
| 2026-05-07 18:18 | 26.07833 | -80.02269 | 4055 ft | 263 kts | 90° |
| 2026-05-07 18:19 | 26.08213 | -80.00271 | 4071 ft | 269 kts | 68° |
| 2026-05-07 18:19 | 26.09161 | -79.98451 | 4086 ft | 270 kts | 56° |
| 2026-05-07 18:19 | 26.10300 | -79.96800 | 4095 ft | 270 kts | 52° |
| 2026-05-07 18:19 | 26.11465 | -79.95164 | 4138 ft | 270 kts | 52° |
| 2026-05-07 18:20 | 26.12625 | -79.93523 | 4143 ft | 270 kts | 52° |
| 2026-05-07 18:20 | 26.13801 | -79.91899 | 4148 ft | 270 kts | 51° |
| 2026-05-07 18:20 | 26.15017 | -79.90315 | 4149 ft | 270 kts | 49° |
| 2026-05-07 18:20 | 26.16284 | -79.88770 | 4151 ft | 270 kts | 47° |
| 2026-05-07 18:21 | 26.17364 | -79.87070 | 4131 ft | 270 kts | 59° |
| 2026-05-07 18:21 | 26.18400 | -79.85332 | 4153 ft | 269 kts | 56° |
| 2026-05-07 18:21 | 26.19466 | -79.83622 | 4154 ft | 269 kts | 56° |
| 2026-05-07 18:21 | 26.20532 | -79.81911 | 4154 ft | 270 kts | 56° |
| 2026-05-07 18:22 | 26.21599 | -79.80198 | 4155 ft | 270 kts | 56° |
| 2026-05-07 18:22 | 26.22322 | -79.79038 | 4155 ft | 270 kts | 56° |
| 2026-05-07 18:22 | 26.23749 | -79.76748 | 4156 ft | 270 kts | 56° |
| 2026-05-07 18:22 | 26.24818 | -79.75030 | 4157 ft | 270 kts | 56° |